Wittmundhafen Airport ETNT

Flugplatz Daten

Name: Wittmundhafen Airport

Ident: ETNT

Lat: 53,54779816

Long: 7,667329788

Platzhöhe: 26 ft

IataCode:

City:

Metar

2021/10/20 12:20
ETNT 201220Z 22013KT 5000 RA BR BKN011 15/14 Q0997 GRN WHT TEMPO GRN

Taf

2018/08/08 20:36
TAF TAF ETNT 081920Z 0820/0908 18003KT 9999 NSW FEW020 SCT050
TEMPO 0901/0907 VRB03KT 4000 BR SCT015 PROB30 0903/0905 VRB02KT 1500 MIFG SCT003 BKN010 BY ETGL
Gewünschte Webcam nicht vorhanden? Dann fügen Sie eine hinzu. Sie wird dann so schnell wie möglich freigeschaltet
Url: Title: